createdAt,value
2018-05-04T00:01:46.996Z,4.50
2018-05-04T00:04:20.591Z,4.60
2018-05-04T00:06:54.113Z,4.70
2018-05-04T00:09:27.644Z,5.67
2018-05-04T00:12:01.172Z,5.97
2018-05-04T00:14:34.690Z,5.20
2018-05-04T00:17:08.295Z,5.53
2018-05-04T00:19:42.008Z,5.27
2018-05-04T00:22:15.590Z,6.27
2018-05-04T00:24:49.268Z,5.63
2018-05-04T00:27:22.819Z,5.90
2018-05-04T00:29:56.448Z,5.43
2018-05-04T00:32:30.075Z,5.33
2018-05-04T00:35:03.746Z,5.90
2018-05-04T00:37:37.243Z,5.63
2018-05-04T00:40:10.800Z,5.63
2018-05-04T00:42:44.395Z,5.87
2018-05-04T00:45:18.088Z,5.27
2018-05-04T00:47:51.860Z,5.77
2018-05-04T00:50:25.503Z,6.20
2018-05-04T00:52:59.105Z,6.17
2018-05-04T00:55:32.988Z,6.33
2018-05-04T00:58:06.553Z,6.60
2018-05-04T01:00:40.250Z,6.07
2018-05-04T01:03:13.832Z,6.83
2018-05-04T01:05:47.388Z,6.47
2018-05-04T01:08:20.988Z,7.23
2018-05-04T01:10:54.608Z,7.37
2018-05-04T01:13:29.471Z,6.83
2018-05-04T01:16:03.144Z,7.00
2018-05-04T01:18:36.819Z,7.27
2018-05-04T01:21:10.380Z,7.80
2018-05-04T01:23:43.934Z,6.87
2018-05-04T01:26:17.615Z,7.10
2018-05-04T01:28:51.367Z,6.97
2018-05-04T01:31:24.999Z,7.30
2018-05-04T01:33:58.537Z,7.67
2018-05-04T01:36:32.328Z,7.27
2018-05-04T01:39:05.924Z,7.60
2018-05-04T01:41:39.528Z,8.83
2018-05-04T01:44:13.900Z,8.20
2018-05-04T01:46:47.490Z,8.80
2018-05-04T01:49:21.147Z,8.50
2018-05-04T01:51:54.703Z,7.40
2018-05-04T01:54:28.427Z,8.13
2018-05-04T01:57:03.111Z,8.17
2018-05-04T01:59:36.840Z,8.47
2018-05-04T02:02:10.494Z,8.30
2018-05-04T02:04:44.222Z,8.33
2018-05-04T02:07:18.833Z,8.47
2018-05-04T02:09:52.546Z,9.07
2018-05-04T02:12:26.056Z,8.93
2018-05-04T02:14:59.703Z,8.90
2018-05-04T02:17:33.326Z,9.07
2018-05-04T02:20:06.843Z,9.07
2018-05-04T02:22:40.497Z,9.13
2018-05-04T02:25:14.168Z,9.10
2018-05-04T02:27:47.816Z,8.70
2018-05-04T02:30:21.451Z,9.33
2018-05-04T02:32:55.105Z,9.40
2018-05-04T02:35:28.859Z,8.87
2018-05-04T02:38:02.417Z,8.47
2018-05-04T02:40:36.031Z,8.73
2018-05-04T02:43:09.553Z,8.20
2018-05-04T02:45:43.156Z,8.77
2018-05-04T02:48:16.691Z,9.37
2018-05-04T02:50:50.176Z,9.03
2018-05-04T02:53:23.781Z,9.40
2018-05-04T02:55:57.439Z,9.30
2018-05-04T02:58:31.189Z,9.43
2018-05-04T03:01:04.794Z,8.53
2018-05-04T03:03:38.721Z,9.27
2018-05-04T03:06:12.393Z,9.00
2018-05-04T03:08:46.022Z,9.73
2018-05-04T03:11:19.784Z,9.70
2018-05-04T03:13:53.343Z,8.67
2018-05-04T03:16:27.021Z,9.23
2018-05-04T03:19:00.713Z,8.37
2018-05-04T03:21:34.312Z,8.77
2018-05-04T03:24:08.083Z,8.80
2018-05-04T03:26:41.789Z,8.63
2018-05-04T03:29:15.567Z,8.90
2018-05-04T03:31:49.132Z,7.77
2018-05-04T03:34:22.794Z,7.87
2018-05-04T03:36:56.563Z,8.10
2018-05-04T03:39:30.214Z,7.37
2018-05-04T03:42:03.760Z,7.40
2018-05-04T03:44:37.492Z,7.30
2018-05-04T03:47:11.149Z,7.27
2018-05-04T03:49:44.785Z,7.27
2018-05-04T03:52:18.405Z,6.53
2018-05-04T03:54:52.035Z,7.10
2018-05-04T04:00:41.273Z,6.77
2018-05-04T04:03:26.868Z,6.67
2018-05-04T04:06:00.611Z,6.10
2018-05-04T04:08:34.244Z,6.07
2018-05-04T04:11:07.951Z,6.30
2018-05-04T04:13:41.576Z,6.47
2018-05-04T04:16:15.271Z,4.87
2018-05-04T04:18:48.892Z,4.87
2018-05-04T04:21:22.540Z,5.57
2018-05-04T04:23:56.123Z,5.47
2018-05-04T04:26:30.056Z,5.23
2018-05-04T04:29:03.728Z,5.27
2018-05-04T04:31:37.357Z,4.97
2018-05-04T04:34:11.111Z,4.17
2018-05-04T04:36:44.813Z,5.00
2018-05-04T04:39:18.432Z,5.17
2018-05-04T04:41:52.097Z,5.50
2018-05-04T04:44:25.918Z,4.50
2018-05-04T04:46:59.529Z,4.80
2018-05-04T04:49:33.065Z,4.53
2018-05-04T04:52:06.673Z,4.93
2018-05-04T04:54:40.481Z,4.57
2018-05-04T04:57:14.136Z,4.57
2018-05-04T04:59:47.840Z,4.90
2018-05-04T05:02:21.455Z,4.43
2018-05-04T05:04:55.320Z,4.43
2018-05-04T05:07:29.133Z,4.03
2018-05-04T05:10:02.738Z,4.90
2018-05-04T05:12:36.310Z,5.30
2018-05-04T05:15:09.858Z,4.50
2018-05-04T05:17:43.549Z,4.90
2018-05-04T05:20:17.389Z,4.77
2018-05-04T05:22:51.027Z,4.77
2018-05-04T05:25:24.619Z,4.20
2018-05-04T05:27:58.303Z,4.97
2018-05-04T05:30:32.045Z,4.73
2018-05-04T05:33:05.849Z,5.00
2018-05-04T05:35:39.714Z,4.53
2018-05-04T05:38:13.465Z,4.33
2018-05-04T05:40:47.338Z,4.63
2018-05-04T05:43:20.933Z,5.07
2018-05-04T05:45:54.516Z,5.10
2018-05-04T05:48:28.199Z,5.37
2018-05-04T05:51:02.010Z,4.80
2018-05-04T05:53:35.820Z,4.70
2018-05-04T05:56:09.571Z,4.43
2018-05-04T05:58:43.431Z,4.50
2018-05-04T06:01:16.991Z,4.90
2018-05-04T06:03:50.662Z,4.47
2018-05-04T06:06:24.319Z,5.00
2018-05-04T06:08:58.165Z,5.13
2018-05-04T06:11:32.005Z,4.73
2018-05-04T06:14:05.633Z,4.60
2018-05-04T06:16:39.327Z,4.23
2018-05-04T06:19:12.991Z,3.87
2018-05-04T06:21:46.680Z,4.50
2018-05-04T06:24:20.388Z,3.90
2018-05-04T06:26:54.065Z,4.07
2018-05-04T06:29:27.746Z,4.87
2018-05-04T06:32:01.360Z,4.17
2018-05-04T06:34:34.918Z,4.40
2018-05-04T06:37:08.572Z,4.20
2018-05-04T06:39:42.383Z,4.27
2018-05-04T06:42:15.957Z,4.17
2018-05-04T06:44:49.688Z,3.93
2018-05-04T06:47:23.302Z,3.30
2018-05-04T06:49:57.048Z,3.27
2018-05-04T06:52:30.747Z,3.10
2018-05-04T06:55:04.525Z,2.87
2018-05-04T06:57:38.272Z,2.60
2018-05-04T07:00:12.065Z,2.30
2018-05-04T07:02:45.859Z,2.70
2018-05-04T07:05:19.606Z,2.37
2018-05-04T07:07:53.288Z,2.50
2018-05-04T07:10:27.110Z,2.67
2018-05-04T07:13:00.702Z,2.63
2018-05-04T07:15:34.285Z,2.60
2018-05-04T07:18:07.788Z,2.63
2018-05-04T07:20:41.568Z,2.60
2018-05-04T07:23:15.200Z,2.20
2018-05-04T07:25:48.748Z,2.47
2018-05-04T07:28:22.248Z,2.70
2018-05-04T07:30:55.912Z,2.53
2018-05-04T07:33:29.462Z,2.53
2018-05-04T07:36:03.205Z,2.50
2018-05-04T07:38:36.760Z,2.53
2018-05-04T07:41:10.244Z,2.73
2018-05-04T07:43:43.925Z,2.87
2018-05-04T07:46:17.488Z,3.07
2018-05-04T07:48:51.320Z,3.00
2018-05-04T07:51:24.840Z,2.93
2018-05-04T07:53:58.516Z,2.60
2018-05-04T07:56:36.888Z,3.10
2018-05-04T07:59:10.584Z,3.00
2018-05-04T08:01:44.147Z,3.23
2018-05-04T08:04:17.807Z,3.10
2018-05-04T08:06:51.315Z,3.60
2018-05-04T08:09:24.819Z,3.40
2018-05-04T08:11:58.448Z,3.40
2018-05-04T08:14:32.199Z,2.70
2018-05-04T08:17:05.771Z,3.10
2018-05-04T08:19:39.537Z,3.03
2018-05-04T08:22:13.223Z,3.00
2018-05-04T08:24:46.808Z,3.00
2018-05-04T08:27:20.426Z,2.90
2018-05-04T08:29:53.899Z,2.70
2018-05-04T08:32:27.748Z,2.67
2018-05-04T08:35:01.546Z,2.90
2018-05-04T08:37:35.084Z,2.67
2018-05-04T08:40:08.845Z,2.37
2018-05-04T08:42:42.387Z,2.73
2018-05-04T08:45:16.172Z,2.70
2018-05-04T08:47:50.149Z,2.60
2018-05-04T08:50:23.932Z,2.13
2018-05-04T08:52:57.556Z,2.40
2018-05-04T08:55:31.873Z,2.53
2018-05-04T08:58:05.446Z,2.20
2018-05-04T09:00:39.101Z,2.73
2018-05-04T09:03:12.623Z,2.90
2018-05-04T09:05:46.445Z,2.70
2018-05-04T09:08:20.130Z,2.70
2018-05-04T09:10:53.720Z,2.33
2018-05-04T09:13:27.469Z,2.20
2018-05-04T09:16:01.269Z,2.20
2018-05-04T09:18:34.928Z,3.03
2018-05-04T09:21:08.763Z,2.37
2018-05-04T09:23:42.776Z,2.70
2018-05-04T09:26:16.444Z,3.00
2018-05-04T09:28:50.009Z,2.60
2018-05-04T09:31:23.688Z,2.27
2018-05-04T09:33:57.333Z,2.57
2018-05-04T09:36:30.907Z,2.87
2018-05-04T09:39:04.711Z,2.23
2018-05-04T09:41:38.349Z,2.60
2018-05-04T09:44:12.004Z,2.63
2018-05-04T09:46:45.901Z,2.83
2018-05-04T09:49:19.450Z,2.53
2018-05-04T09:51:53.234Z,2.70
2018-05-04T09:54:26.984Z,2.20
2018-05-04T09:57:00.725Z,2.63
2018-05-04T09:59:34.374Z,2.70
2018-05-04T10:02:08.034Z,2.40
2018-05-04T10:04:41.765Z,3.00
2018-05-04T10:07:15.433Z,2.90
2018-05-04T10:09:49.230Z,3.00
2018-05-04T10:12:22.985Z,2.80
2018-05-04T10:14:56.729Z,2.67
2018-05-04T10:17:30.458Z,2.83
2018-05-04T10:20:04.260Z,2.87
2018-05-04T10:22:38.052Z,3.00
2018-05-04T10:25:11.641Z,2.73
2018-05-04T10:27:45.398Z,2.60
2018-05-04T10:30:19.081Z,2.93
2018-05-04T10:32:52.750Z,2.93
2018-05-04T10:35:26.292Z,3.00
2018-05-04T10:37:59.965Z,3.30
2018-05-04T10:40:33.647Z,2.47
2018-05-04T10:43:07.512Z,2.90
2018-05-04T10:45:41.136Z,2.70
2018-05-04T10:48:14.848Z,2.70
2018-05-04T10:50:48.409Z,3.10
2018-05-04T10:53:22.010Z,2.83
2018-05-04T10:55:55.658Z,3.20
2018-05-04T10:58:29.357Z,2.90
2018-05-04T11:01:03.145Z,3.00
2018-05-04T11:03:36.764Z,2.60
2018-05-04T11:06:10.424Z,2.70
2018-05-04T11:08:44.161Z,2.53
2018-05-04T11:11:17.798Z,2.77
2018-05-04T11:13:51.378Z,2.70
2018-05-04T11:16:25.257Z,4.03
2018-05-04T11:18:58.868Z,3.20
2018-05-04T11:21:32.370Z,2.97
2018-05-04T11:24:06.189Z,3.37
2018-05-04T11:26:46.916Z,3.07
2018-05-04T11:29:20.451Z,3.00
2018-05-04T11:31:54.104Z,3.27
2018-05-04T11:34:27.786Z,3.20
2018-05-04T11:37:01.471Z,3.40
2018-05-04T11:39:35.174Z,3.50
2018-05-04T11:42:08.728Z,2.93
2018-05-04T11:44:42.432Z,3.60
2018-05-04T11:47:16.005Z,3.17
2018-05-04T11:49:49.582Z,3.60
2018-05-04T11:52:23.220Z,4.80
2018-05-04T11:54:56.813Z,3.87
2018-05-04T11:57:30.380Z,4.10
2018-05-04T12:00:04.050Z,4.00
2018-05-04T12:02:37.660Z,3.53
2018-05-04T12:05:11.269Z,3.83
2018-05-04T12:07:44.836Z,3.40
2018-05-04T12:10:18.384Z,4.10
2018-05-04T12:12:51.993Z,3.40
2018-05-04T12:15:25.665Z,4.50
2018-05-04T12:17:59.301Z,4.50
2018-05-04T12:20:32.937Z,3.97
2018-05-04T12:23:06.721Z,4.80
2018-05-04T12:25:40.505Z,4.33
2018-05-04T12:28:14.104Z,4.60
2018-05-04T12:30:47.756Z,4.60
2018-05-04T12:33:21.329Z,4.07
2018-05-04T12:35:54.858Z,3.83
2018-05-04T12:38:28.486Z,4.90
2018-05-04T12:41:02.102Z,4.40
2018-05-04T12:43:35.632Z,4.27
2018-05-04T12:46:09.328Z,4.00
2018-05-04T12:48:43.924Z,4.30
2018-05-04T12:51:17.669Z,4.23
2018-05-04T12:53:51.441Z,5.23
2018-05-04T12:56:24.861Z,4.20
2018-05-04T12:58:58.500Z,4.60
2018-05-04T13:01:32.048Z,4.57
2018-05-04T13:04:05.833Z,3.57
2018-05-04T13:06:39.385Z,4.30
2018-05-04T13:09:13.519Z,4.77
2018-05-04T13:11:47.263Z,4.40
2018-05-04T13:14:20.972Z,5.30
2018-05-04T13:16:54.704Z,5.40
2018-05-04T13:19:28.485Z,5.17
2018-05-04T13:22:02.167Z,4.67
2018-05-04T13:24:35.991Z,5.83
2018-05-04T13:27:09.645Z,4.17
2018-05-04T13:29:43.308Z,5.57
2018-05-04T13:32:17.085Z,5.20
2018-05-04T13:34:50.668Z,4.50
2018-05-04T13:37:24.357Z,4.47
2018-05-04T13:39:59.105Z,4.17
2018-05-04T13:42:32.740Z,4.90
2018-05-04T13:45:06.399Z,5.07
2018-05-04T13:47:40.161Z,4.47
2018-05-04T13:50:13.689Z,5.57
2018-05-04T13:52:47.338Z,5.30
2018-05-04T13:55:21.053Z,5.10
2018-05-04T13:57:54.625Z,4.87
2018-05-04T14:00:28.197Z,4.80
2018-05-04T14:03:01.987Z,5.83
2018-05-04T14:05:35.500Z,6.63
2018-05-04T14:08:08.996Z,4.70
2018-05-04T14:10:42.732Z,4.90
2018-05-04T14:13:16.389Z,4.07
2018-05-04T14:15:50.172Z,4.47
2018-05-04T14:18:24.019Z,4.80
2018-05-04T14:20:57.631Z,4.63
2018-05-04T14:23:31.216Z,4.10
2018-05-04T14:26:04.707Z,4.50
2018-05-04T14:28:38.376Z,7.23
2018-05-04T14:31:12.161Z,5.80
2018-05-04T14:33:45.698Z,4.27
2018-05-04T14:36:19.250Z,4.40
2018-05-04T14:38:52.839Z,4.40
2018-05-04T14:41:26.343Z,4.43
2018-05-04T14:44:00.047Z,4.67
2018-05-04T14:46:33.626Z,4.17
2018-05-04T14:49:07.176Z,4.33
2018-05-04T14:51:40.701Z,4.40
2018-05-04T14:54:14.324Z,4.03
2018-05-04T14:56:47.973Z,4.27
2018-05-04T14:59:21.831Z,3.93
2018-05-04T15:01:55.400Z,4.00
2018-05-04T15:04:29.158Z,5.20
2018-05-04T15:07:02.703Z,4.43
2018-05-04T15:09:36.266Z,4.40
2018-05-04T15:12:09.834Z,4.00
2018-05-04T15:14:43.421Z,4.07
2018-05-04T15:17:17.000Z,4.70
2018-05-04T15:19:50.590Z,4.50
2018-05-04T15:22:25.230Z,4.73
2018-05-04T15:24:59.111Z,4.33
2018-05-04T15:27:32.590Z,3.90
2018-05-04T15:30:06.163Z,4.40
2018-05-04T15:32:39.820Z,3.90
2018-05-04T15:35:13.525Z,5.00
2018-05-04T15:37:47.155Z,4.53
2018-05-04T15:40:20.960Z,4.10
2018-05-04T15:42:54.513Z,3.83
2018-05-04T15:45:28.181Z,4.20
2018-05-04T15:48:02.007Z,4.30
2018-05-04T15:50:41.502Z,3.93
2018-05-04T15:53:15.201Z,3.77
2018-05-04T15:55:48.794Z,3.80
2018-05-04T15:58:22.338Z,3.90
2018-05-04T16:00:55.883Z,3.60
2018-05-04T16:03:29.555Z,3.87
2018-05-04T16:06:03.299Z,26.10
2018-05-04T16:08:37.093Z,4.13
2018-05-04T16:11:10.742Z,3.70
2018-05-04T16:13:44.511Z,3.90
2018-05-04T16:16:18.039Z,3.67
2018-05-04T16:18:51.663Z,5.33
2018-05-04T16:21:25.344Z,4.07
2018-05-04T16:23:58.942Z,4.77
2018-05-04T16:26:32.534Z,3.93
2018-05-04T16:29:06.311Z,3.50
2018-05-04T16:31:40.209Z,3.97
2018-05-04T16:34:13.808Z,6.63
2018-05-04T16:36:47.618Z,3.40
2018-05-04T16:39:21.224Z,4.03
2018-05-04T16:41:54.843Z,4.30
2018-05-04T16:44:28.613Z,3.70
2018-05-04T16:47:08.081Z,3.83
2018-05-04T16:49:41.767Z,3.83
2018-05-04T16:52:15.308Z,4.67
2018-05-04T16:54:48.935Z,4.67
2018-05-04T16:57:22.660Z,4.90
2018-05-04T16:59:56.305Z,5.22
2018-05-04T17:02:30.116Z,5.83
2018-05-04T17:05:03.810Z,6.10
2018-05-04T17:07:37.708Z,6.70
2018-05-04T17:10:11.343Z,5.30
2018-05-04T17:12:44.892Z,5.57
2018-05-04T17:15:18.471Z,6.10
2018-05-04T17:17:52.247Z,6.13
2018-05-04T17:20:25.865Z,5.73
2018-05-04T17:22:59.456Z,5.97
2018-05-04T17:25:33.099Z,5.70
2018-05-04T17:28:06.824Z,5.40
2018-05-04T17:30:40.364Z,5.47
2018-05-04T17:33:13.984Z,6.07
2018-05-04T17:35:47.536Z,6.10
2018-05-04T17:38:21.109Z,6.90
2018-05-04T17:40:54.831Z,7.47
2018-05-04T17:43:28.531Z,7.63
2018-05-04T17:46:02.386Z,6.50
2018-05-04T17:48:36.020Z,6.50
2018-05-04T17:51:09.883Z,7.00
2018-05-04T17:53:43.494Z,6.23
2018-05-04T17:56:17.180Z,6.30
2018-05-04T17:58:50.998Z,6.90
2018-05-04T18:01:24.763Z,6.10
2018-05-04T18:03:58.562Z,5.37
2018-05-04T18:06:32.095Z,6.57
2018-05-04T18:09:05.637Z,5.80
2018-05-04T18:11:39.317Z,5.80
2018-05-04T18:14:12.968Z,5.80
2018-05-04T18:16:46.636Z,6.10
2018-05-04T18:19:20.145Z,5.80
2018-05-04T18:21:53.924Z,5.57
2018-05-04T18:24:27.720Z,5.60
2018-05-04T18:27:01.296Z,5.60
2018-05-04T18:29:34.991Z,5.20
2018-05-04T18:32:08.496Z,5.70
2018-05-04T18:34:42.080Z,5.70
2018-05-04T18:37:15.727Z,5.67
2018-05-04T18:39:49.423Z,8.17
2018-05-04T18:42:22.999Z,7.47
2018-05-04T18:44:56.646Z,6.50
2018-05-04T18:47:30.392Z,6.50
2018-05-04T18:50:04.162Z,6.83
2018-05-04T18:52:37.907Z,6.03
2018-05-04T18:55:11.499Z,6.47
2018-05-04T18:57:45.239Z,6.23
2018-05-04T19:00:18.782Z,6.17
2018-05-04T19:02:57.966Z,6.67
2018-05-04T19:05:31.618Z,6.13
2018-05-04T19:08:05.287Z,6.70
2018-05-04T19:10:38.850Z,6.13
2018-05-04T19:13:12.358Z,6.67
2018-05-04T19:15:46.028Z,6.47
2018-05-04T19:18:19.589Z,5.93
2018-05-04T19:20:53.171Z,5.90
2018-05-04T19:23:26.961Z,5.97
2018-05-04T19:26:00.729Z,6.43
2018-05-04T19:28:34.463Z,5.70
2018-05-04T19:31:07.997Z,5.57
2018-05-04T19:33:41.580Z,6.57
2018-05-04T19:36:15.156Z,5.80
2018-05-04T19:38:48.831Z,5.30
2018-05-04T19:41:22.376Z,5.30
2018-05-04T19:43:56.102Z,5.13
2018-05-04T19:46:29.672Z,5.70
2018-05-04T19:49:03.636Z,5.30
2018-05-04T19:51:37.165Z,5.63
2018-05-04T19:54:10.941Z,5.27
2018-05-04T19:56:44.511Z,4.90
2018-05-04T19:59:18.252Z,5.60
2018-05-04T20:01:51.888Z,5.47
2018-05-04T20:04:25.431Z,4.80
2018-05-04T20:06:58.986Z,5.00
2018-05-04T20:09:33.068Z,5.27
2018-05-04T20:12:06.604Z,5.90
2018-05-04T20:14:40.400Z,5.70
2018-05-04T20:17:14.043Z,6.23
2018-05-04T20:19:47.992Z,5.10
2018-05-04T20:22:21.683Z,5.43
2018-05-04T20:24:55.706Z,6.03
2018-05-04T20:27:29.415Z,5.10
2018-05-04T20:30:03.233Z,5.53
2018-05-04T20:32:36.992Z,5.27
2018-05-04T20:35:10.711Z,6.20
2018-05-04T20:37:44.394Z,5.47
2018-05-04T20:40:18.151Z,5.67
2018-05-04T20:42:51.685Z,5.10
2018-05-04T20:45:25.246Z,5.60
2018-05-04T20:47:58.928Z,5.73
2018-05-04T20:50:32.483Z,6.20
2018-05-04T20:53:06.283Z,6.90
2018-05-04T20:55:39.995Z,5.80
2018-05-04T20:58:13.639Z,6.40
2018-05-04T21:00:47.293Z,6.57
2018-05-04T21:03:20.907Z,6.67
2018-05-04T21:05:54.728Z,6.10
2018-05-04T21:08:28.456Z,6.73
2018-05-04T21:11:02.014Z,6.50
2018-05-04T21:13:35.835Z,6.80
2018-05-04T21:16:09.561Z,6.93
2018-05-04T21:18:43.112Z,6.97
2018-05-04T21:21:16.668Z,7.10
2018-05-04T21:23:50.263Z,7.17
2018-05-04T21:26:23.779Z,6.40
2018-05-04T21:28:57.430Z,6.40
2018-05-04T21:31:30.978Z,6.67
2018-05-04T21:34:04.539Z,6.90
2018-05-04T21:36:38.232Z,6.63
2018-05-04T21:39:11.898Z,6.50
2018-05-04T21:41:45.639Z,7.47
2018-05-04T21:44:19.318Z,6.93
2018-05-04T21:46:52.978Z,6.50
2018-05-04T21:49:26.736Z,6.60
2018-05-04T21:52:00.452Z,6.20
2018-05-04T21:54:33.964Z,7.13
2018-05-04T21:57:07.532Z,7.37
2018-05-04T21:59:41.140Z,6.93
2018-05-04T22:02:14.818Z,6.63
2018-05-04T22:04:48.749Z,6.10
2018-05-04T22:07:22.450Z,6.47
2018-05-04T22:09:56.087Z,6.07
2018-05-04T22:12:29.704Z,7.33
2018-05-04T22:15:03.288Z,6.70
2018-05-04T22:17:36.972Z,6.70
2018-05-04T22:20:10.641Z,6.10
2018-05-04T22:22:44.327Z,6.23
2018-05-04T22:25:17.952Z,6.70
2018-05-04T22:27:51.892Z,6.70
2018-05-04T22:30:25.585Z,6.80
2018-05-04T22:32:59.395Z,6.17
2018-05-04T22:35:33.052Z,5.93
2018-05-04T22:38:06.802Z,5.73
2018-05-04T22:40:40.428Z,5.97
2018-05-04T22:43:14.303Z,6.20
2018-05-04T22:45:48.152Z,6.20
2018-05-04T22:48:21.816Z,5.77
2018-05-04T22:50:55.656Z,5.67
2018-05-04T22:53:29.305Z,5.93
2018-05-04T22:56:03.065Z,6.40
2018-05-04T22:58:36.700Z,5.27
2018-05-04T23:01:10.398Z,5.87
2018-05-04T23:03:44.027Z,6.13
2018-05-04T23:06:17.808Z,6.03
2018-05-04T23:08:51.403Z,5.27
2018-05-04T23:11:25.192Z,5.63
2018-05-04T23:13:58.801Z,6.40
2018-05-04T23:16:32.428Z,6.03
2018-05-04T23:19:06.139Z,5.97
2018-05-04T23:21:39.904Z,5.70
2018-05-04T23:24:13.635Z,5.97
2018-05-04T23:26:47.370Z,6.40
2018-05-04T23:29:20.900Z,6.20
2018-05-04T23:31:54.456Z,5.73
2018-05-04T23:34:27.972Z,5.57
2018-05-04T23:37:01.736Z,6.03
2018-05-04T23:39:35.319Z,5.70
2018-05-04T23:42:09.013Z,6.77
2018-05-04T23:44:42.716Z,6.50
2018-05-04T23:47:16.387Z,6.50
2018-05-04T23:49:49.924Z,6.37
2018-05-04T23:52:23.524Z,6.33
2018-05-04T23:54:58.822Z,6.07
2018-05-04T23:57:32.524Z,6.07
